Time;durP1;ratioP1;P1;durP2;ratioP2;P2;SDS_P1;SDS_P2;PMS_P1;PMS_P2;Temp;Humidity;BMP_temperature;BMP_pressure;BME280_temperature;BME280_humidity;BME280_pressure;Samples;Min_cycle;Max_cycle;Signal;HPM_P1;HPM_P2
2022/04/08 00:01:25;;;;;;;10.13;2.47;;;7.10;99.90;;;;;;5072625;28;20024;-68
2022/04/08 00:03:52;;;;;;;7.85;2.47;;;7.10;99.90;;;;;;5072680;28;20112;-68
2022/04/08 00:06:19;;;;;;;7.40;2.05;;;7.00;99.90;;;;;;5072745;28;20142;-69
2022/04/08 00:08:45;;;;;;;12.60;2.25;;;7.00;99.90;;;;;;5071402;28;20017;-68
2022/04/08 00:11:11;;;;;;;8.45;2.28;;;7.00;99.90;;;;;;5071489;28;20025;-68
2022/04/08 00:13:36;;;;;;;7.72;1.95;;;7.00;99.90;;;;;;5072606;28;20033;-68
2022/04/08 00:16:02;;;;;;;9.95;2.35;;;7.00;99.90;;;;;;5072531;28;20025;-68
2022/04/08 00:18:29;;;;;;;10.80;2.78;;;7.00;99.90;;;;;;5072468;28;20376;-68
2022/04/08 00:20:55;;;;;;;11.15;2.25;;;7.00;99.90;;;;;;5072338;28;20097;-68
2022/04/08 00:23:21;;;;;;;6.90;2.15;;;7.00;99.90;;;;;;5072537;28;20029;-68
2022/04/08 00:25:46;;;;;;;9.02;2.10;;;7.00;99.90;;;;;;5072534;28;20074;-68
2022/04/08 00:28:12;;;;;;;7.50;2.05;;;7.00;99.90;;;;;;5074965;28;20100;-68
2022/04/08 00:30:37;;;;;;;14.38;2.70;;;6.90;99.90;;;;;;5074753;28;20164;-68
2022/04/08 00:33:03;;;;;;;7.43;2.17;;;6.80;99.90;;;;;;5076020;28;20154;-68
2022/04/08 00:35:28;;;;;;;9.48;2.50;;;6.80;99.90;;;;;;5074723;28;20032;-68
2022/04/08 00:37:54;;;;;;;10.25;3.22;;;6.70;99.90;;;;;;5076003;28;20037;-68
2022/04/08 00:40:19;;;;;;;10.32;3.00;;;6.70;99.90;;;;;;5075843;28;20020;-68
2022/04/08 00:42:45;;;;;;;7.57;2.20;;;6.70;99.90;;;;;;5075883;28;20035;-68
2022/04/08 00:45:11;;;;;;;7.05;2.47;;;6.70;99.90;;;;;;5075916;28;20021;-68
2022/04/08 00:47:40;;;;;;;9.07;2.45;;;6.70;99.90;;;;;;5075828;28;20390;-68
2022/04/08 00:50:07;;;;;;;11.15;2.45;;;6.70;99.90;;;;;;5058311;28;20111;-68
2022/04/08 00:52:34;;;;;;;8.82;2.33;;;6.70;99.90;;;;;;5075670;28;20035;-68
2022/04/08 00:55:03;;;;;;;9.07;2.00;;;6.70;99.90;;;;;;5074318;28;20086;-68
2022/04/08 00:57:29;;;;;;;13.73;2.25;;;6.70;99.90;;;;;;5075588;28;20081;-68
2022/04/08 00:59:55;;;;;;;7.43;2.53;;;6.70;99.90;;;;;;5074243;28;20478;-68
2022/04/08 01:02:21;;;;;;;6.93;2.50;;;6.70;99.90;;;;;;5074372;28;20119;-68
2022/04/08 01:04:46;;;;;;;7.28;2.08;;;6.70;99.90;;;;;;5075519;28;20046;-69
2022/04/08 01:07:12;;;;;;;13.25;2.90;;;6.70;99.90;;;;;;5075434;28;20024;-68
2022/04/08 01:09:38;;;;;;;7.68;2.20;;;6.70;99.90;;;;;;5075366;28;20426;-68
2022/04/08 01:12:04;;;;;;;6.47;2.40;;;6.60;99.90;;;;;;5074050;28;20032;-68
2022/04/08 01:14:29;;;;;;;8.07;2.75;;;6.50;99.90;;;;;;5075265;28;20036;-67
2022/04/08 01:16:55;;;;;;;11.25;2.40;;;6.40;99.90;;;;;;5075194;28;20028;-68
2022/04/08 01:19:20;;;;;;;7.30;1.92;;;6.30;99.90;;;;;;5073641;28;20529;-68
2022/04/08 01:21:46;;;;;;;12.65;2.70;;;6.30;99.90;;;;;;5075244;28;20081;-67
2022/04/08 01:24:14;;;;;;;9.40;2.35;;;6.20;99.90;;;;;;5075187;28;20025;-68
2022/04/08 01:26:41;;;;;;;7.05;2.17;;;6.20;99.90;;;;;;5075032;28;20397;-68
2022/04/08 01:29:07;;;;;;;9.57;2.40;;;6.20;99.90;;;;;;5075013;28;20027;-68
2022/04/08 01:31:32;;;;;;;6.25;1.90;;;6.20;99.90;;;;;;5074941;28;20036;-68
2022/04/08 01:33:58;;;;;;;10.80;2.05;;;6.20;99.90;;;;;;5073731;28;20051;-68
2022/04/08 01:36:24;;;;;;;8.18;1.80;;;6.30;99.90;;;;;;5056922;28;20024;-68
2022/04/08 01:38:49;;;;;;;7.38;1.55;;;6.30;99.90;;;;;;5074795;28;20086;-68
2022/04/08 01:41:16;;;;;;;6.95;1.67;;;6.30;99.90;;;;;;5074763;28;20035;-68
2022/04/08 01:43:43;;;;;;;9.98;2.28;;;6.30;99.90;;;;;;5074781;28;20017;-68
2022/04/08 01:46:08;;;;;;;10.15;1.90;;;6.40;99.90;;;;;;5056756;28;20029;-68
2022/04/08 01:48:33;;;;;;;7.88;1.73;;;6.40;99.90;;;;;;5074624;28;20436;-68
2022/04/08 01:50:59;;;;;;;7.15;1.30;;;6.40;99.90;;;;;;5074534;28;20025;-68
2022/04/08 01:53:24;;;;;;;7.10;1.48;;;6.40;99.90;;;;;;5074559;28;20024;-68
2022/04/08 01:55:50;;;;;;;5.05;1.10;;;6.40;99.90;;;;;;5073122;28;20024;-68
2022/04/08 01:58:16;;;;;;;8.40;1.73;;;6.40;99.90;;;;;;5074455;28;20054;-68
2022/04/08 02:00:42;;;;;;;7.28;1.88;;;6.40;99.90;;;;;;5073112;28;20125;-68
2022/04/08 02:03:07;;;;;;;10.05;2.15;;;6.40;99.90;;;;;;5073000;28;20111;-68
2022/04/08 02:05:33;;;;;;;5.28;2.28;;;6.40;99.90;;;;;;5074248;28;20031;-67
2022/04/08 02:07:58;;;;;;;9.50;1.67;;;6.40;99.90;;;;;;5073071;28;20074;-68
2022/04/08 02:10:25;;;;;;;6.72;2.47;;;6.40;99.90;;;;;;5074235;28;20455;-68
2022/04/08 02:12:51;;;;;;;11.00;1.98;;;6.30;99.90;;;;;;5074124;28;20032;-68
2022/04/08 02:15:24;;;;;;;8.98;2.08;;;6.30;99.90;;;;;;5072983;28;20037;-69
2022/04/08 02:17:50;;;;;;;6.93;2.20;;;6.30;99.90;;;;;;5074085;28;20437;-68
2022/04/08 02:20:15;;;;;;;11.70;2.35;;;6.20;99.90;;;;;;5072628;28;20040;-69
2022/04/08 02:22:41;;;;;;;11.95;2.15;;;6.20;99.90;;;;;;5056063;28;20016;-69
2022/04/08 02:25:07;;;;;;;10.70;2.42;;;6.20;99.90;;;;;;5073896;28;20056;-68
2022/04/08 02:27:32;;;;;;;7.72;1.75;;;6.20;99.90;;;;;;5073860;28;20099;-69
2022/04/08 02:29:59;;;;;;;11.02;2.03;;;6.20;99.90;;;;;;5073822;28;20091;-69
2022/04/08 02:32:25;;;;;;;8.23;2.00;;;6.10;99.90;;;;;;5073782;28;20467;-69
2022/04/08 02:34:51;;;;;;;7.97;1.55;;;6.00;99.90;;;;;;5073684;28;20036;-68
2022/04/08 02:37:17;;;;;;;8.95;2.00;;;5.80;99.90;;;;;;5073659;28;20083;-70
2022/04/08 02:39:43;;;;;;;9.27;2.00;;;5.80;99.90;;;;;;5073570;28;20032;-68
2022/04/08 02:42:08;;;;;;;10.05;2.30;;;5.70;99.90;;;;;;5073606;28;20367;-68
2022/04/08 02:44:34;;;;;;;7.05;2.47;;;5.60;99.90;;;;;;5073560;28;20016;-68
2022/04/08 02:46:59;;;;;;;8.32;2.42;;;5.60;99.90;;;;;;5072282;28;20027;-68
2022/04/08 02:49:25;;;;;;;10.13;2.45;;;5.60;99.90;;;;;;5072155;28;20020;-69
2022/04/08 02:51:50;;;;;;;10.60;2.50;;;5.60;99.90;;;;;;5072153;28;20059;-68
2022/04/08 02:54:16;;;;;;;9.25;2.40;;;5.60;99.90;;;;;;5073550;28;20024;-69
2022/04/08 02:56:42;;;;;;;9.20;2.50;;;5.60;99.90;;;;;;5072188;28;20050;-69
2022/04/08 02:59:08;;;;;;;16.35;2.53;;;5.60;99.90;;;;;;5055408;28;20111;-68
2022/04/08 03:01:34;;;;;;;9.85;2.65;;;5.60;99.90;;;;;;5072083;28;20071;-69
2022/04/08 03:03:59;;;;;;;4.30;1.60;;;5.60;99.90;;;;;;5073262;28;20479;-68
2022/04/08 03:06:26;;;;;;;7.60;1.75;;;5.20;99.90;;;;;;5072210;28;20051;-69
2022/04/08 03:08:52;;;;;;;5.97;1.70;;;4.90;99.90;;;;;;5072105;28;20012;-69
2022/04/08 03:11:18;;;;;;;4.70;1.92;;;4.70;99.90;;;;;;5073294;28;20047;-69
2022/04/08 03:13:43;;;;;;;3.58;1.55;;;4.50;99.90;;;;;;5072095;28;20029;-68
2022/04/08 03:16:09;;;;;;;8.15;1.98;;;4.50;99.90;;;;;;5071984;28;20040;-68
2022/04/08 03:18:34;;;;;;;3.67;2.08;;;4.50;99.90;;;;;;5073174;28;20551;-68
2022/04/08 03:20:59;;;;;;;7.85;2.20;;;4.50;99.90;;;;;;5072904;28;20049;-68
2022/04/08 03:23:25;;;;;;;11.25;2.50;;;4.50;99.90;;;;;;5071994;28;20017;-68
2022/04/08 03:25:51;;;;;;;5.75;2.35;;;4.60;99.90;;;;;;5073145;28;20024;-68
2022/04/08 03:28:16;;;;;;;9.35;2.60;;;4.60;99.90;;;;;;5071987;28;20075;-68
2022/04/08 03:30:42;;;;;;;11.98;3.95;;;4.60;99.90;;;;;;5072982;28;20039;-68
2022/04/08 03:33:07;;;;;;;13.35;3.53;;;4.60;99.90;;;;;;5072962;28;20032;-68
2022/04/08 03:35:33;;;;;;;7.60;2.63;;;4.70;99.90;;;;;;5072994;28;20036;-68
2022/04/08 03:37:58;;;;;;;7.05;2.70;;;4.60;99.90;;;;;;5071704;28;20032;-68
2022/04/08 03:40:24;;;;;;;10.13;3.10;;;4.70;99.90;;;;;;5072869;28;20374;-68
2022/04/08 03:42:50;;;;;;;11.73;2.83;;;4.60;99.90;;;;;;5072981;28;20073;-68
2022/04/08 03:45:15;;;;;;;13.23;3.72;;;4.60;99.90;;;;;;5073000;28;20497;-68
2022/04/08 03:47:40;;;;;;;12.77;2.95;;;4.60;99.90;;;;;;5072992;28;20025;-68
2022/04/08 03:50:06;;;;;;;13.23;2.60;;;4.60;99.90;;;;;;5071566;28;20103;-68
2022/04/08 03:52:32;;;;;;;14.00;2.72;;;4.60;99.90;;;;;;5071518;28;20119;-68
2022/04/08 03:54:59;;;;;;;12.77;2.50;;;4.60;99.90;;;;;;5071661;28;20021;-68
2022/04/08 03:57:25;;;;;;;9.73;2.33;;;4.60;99.90;;;;;;5071666;28;20094;-69
2022/04/08 03:59:51;;;;;;;10.00;2.30;;;4.60;99.90;;;;;;5071550;28;20025;-68
2022/04/08 04:02:16;;;;;;;13.05;2.45;;;4.60;99.90;;;;;;5073997;28;20070;-69
2022/04/08 04:04:42;;;;;;;13.13;2.50;;;4.70;99.90;;;;;;5076506;28;20519;-69
2022/04/08 04:07:08;;;;;;;16.23;3.70;;;4.70;99.90;;;;;;5075321;28;20027;-69
2022/04/08 04:09:34;;;;;;;17.55;2.83;;;4.60;99.90;;;;;;5075289;28;20090;-68
2022/04/08 04:11:59;;;;;;;16.60;3.10;;;4.60;99.90;;;;;;5075159;28;20471;-68
2022/04/08 04:14:25;;;;;;;19.75;3.45;;;4.60;99.90;;;;;;5076430;28;20511;-69
2022/04/08 04:16:50;;;;;;;19.80;3.40;;;4.70;99.90;;;;;;5076515;28;20055;-68
2022/04/08 04:19:17;;;;;;;28.70;4.05;;;4.70;99.90;;;;;;5074968;28;20044;-69
2022/04/08 04:21:43;;;;;;;16.55;2.80;;;4.70;99.90;;;;;;5076155;28;20020;-68
2022/04/08 04:24:08;;;;;;;18.88;3.45;;;4.70;99.90;;;;;;5076239;28;20379;-68
2022/04/08 04:26:34;;;;;;;17.77;3.17;;;4.60;99.90;;;;;;5074915;28;20066;-68
2022/04/08 04:28:59;;;;;;;18.67;3.20;;;4.60;99.90;;;;;;5075018;28;20434;-68
2022/04/08 04:31:25;;;;;;;19.25;4.03;;;4.60;99.90;;;;;;5076171;28;20487;-68
2022/04/08 04:33:50;;;;;;;20.23;3.38;;;4.60;99.90;;;;;;5074796;28;20025;-68
2022/04/08 04:36:16;;;;;;;21.73;3.30;;;4.60;99.90;;;;;;5076065;28;20035;-68
2022/04/08 04:38:41;;;;;;;15.75;3.58;;;4.50;99.90;;;;;;5074792;28;20028;-69
2022/04/08 04:41:07;;;;;;;19.15;3.25;;;4.50;99.90;;;;;;5075872;28;20058;-69
2022/04/08 04:43:32;;;;;;;18.83;3.45;;;4.60;99.90;;;;;;5075875;28;20390;-69
2022/04/08 04:45:58;;;;;;;24.13;4.28;;;4.60;99.90;;;;;;5075864;28;20030;-68
2022/04/08 04:48:23;;;;;;;15.73;3.50;;;4.60;99.90;;;;;;5075736;28;20437;-68
2022/04/08 04:50:49;;;;;;;16.95;2.85;;;4.70;99.90;;;;;;5074553;28;20024;-69
2022/04/08 04:53:15;;;;;;;20.02;3.42;;;4.60;99.90;;;;;;5074440;28;20129;-69
2022/04/08 04:55:40;;;;;;;21.60;3.08;;;4.70;99.90;;;;;;5057761;28;20132;-69
2022/04/08 04:58:06;;;;;;;15.05;3.30;;;4.70;99.90;;;;;;5074461;28;20039;-68
2022/04/08 05:00:32;;;;;;;19.92;5.38;;;4.70;99.90;;;;;;5074259;28;20452;-69
2022/04/08 05:02:57;;;;;;;29.13;6.88;;;4.70;99.90;;;;;;5057651;28;20153;-68
2022/04/08 05:05:23;;;;;;;20.48;3.55;;;4.70;99.90;;;;;;5074340;28;20027;-69
2022/04/08 05:07:48;;;;;;;26.67;9.77;;;4.90;99.90;;;;;;5074321;28;20032;-69
2022/04/08 05:10:14;;;;;;;63.75;28.60;;;4.90;99.90;;;;;;5074094;28;20028;-68
2022/04/08 05:12:39;;;;;;;95.68;39.40;;;4.90;99.90;;;;;;5074975;28;20025;-69
2022/04/08 05:15:07;;;;;;;42.15;14.88;;;5.00;99.90;;;;;;5075286;28;20025;-68
2022/04/08 05:17:35;;;;;;;57.95;24.60;;;5.10;99.90;;;;;;5075219;28;20078;-69
2022/04/08 05:20:06;;;;;;;151.27;61.17;;;5.20;99.90;;;;;;5074851;28;20068;-69
2022/04/08 05:22:32;;;;;;;74.18;31.35;;;5.20;99.90;;;;;;5075169;28;20024;-69
2022/04/08 05:24:59;;;;;;;75.18;28.40;;;5.30;99.90;;;;;;5073917;28;20490;-69
2022/04/08 05:27:25;;;;;;;28.40;10.32;;;5.30;99.90;;;;;;5073890;28;20107;-69
2022/04/08 05:29:51;;;;;;;51.80;21.08;;;5.30;99.90;;;;;;5073629;28;20071;-69
2022/04/08 05:32:16;;;;;;;25.98;13.50;;;5.20;99.90;;;;;;5075002;28;20020;-68
2022/04/08 05:34:42;;;;;;;18.10;6.43;;;5.20;99.90;;;;;;5073623;28;20028;-68
2022/04/08 05:37:08;;;;;;;24.70;3.83;;;5.20;99.90;;;;;;5073530;28;20386;-68
2022/04/08 05:39:33;;;;;;;15.18;3.72;;;5.20;99.90;;;;;;5074790;28;20073;-68
2022/04/08 05:41:59;;;;;;;13.00;3.58;;;5.30;99.90;;;;;;5074769;28;20028;-68
2022/04/08 05:44:24;;;;;;;17.40;3.22;;;5.30;99.90;;;;;;5074650;28;20021;-68
2022/04/08 05:46:50;;;;;;;18.67;3.25;;;5.30;99.90;;;;;;5073306;28;20021;-69
2022/04/08 05:49:15;;;;;;;11.43;2.88;;;5.30;99.90;;;;;;5074671;28;20025;-68
2022/04/08 05:51:41;;;;;;;17.25;3.60;;;5.30;99.90;;;;;;5073333;28;20394;-68
2022/04/08 05:54:06;;;;;;;16.77;2.95;;;5.40;99.90;;;;;;5074494;28;20498;-69
2022/04/08 05:56:32;;;;;;;13.70;3.15;;;5.40;99.90;;;;;;5074463;28;20039;-68
2022/04/08 05:58:57;;;;;;;24.73;3.63;;;5.40;99.90;;;;;;5074374;28;20051;-69
2022/04/08 06:01:23;;;;;;;64.38;22.48;;;5.40;99.90;;;;;;5072947;28;20032;-68
2022/04/08 06:03:49;;;;;;;229.35;79.22;;;5.40;99.90;;;;;;5073125;28;20503;-68
2022/04/08 06:06:14;;;;;;;57.97;22.02;;;5.50;99.90;;;;;;5072954;28;20028;-68
2022/04/08 06:08:40;;;;;;;82.22;36.08;;;5.50;99.90;;;;;;5072904;28;20060;-68
2022/04/08 06:11:05;;;;;;;47.70;23.75;;;5.60;99.90;;;;;;5074181;28;20077;-68
2022/04/08 06:13:31;;;;;;;24.40;11.25;;;5.90;99.90;;;;;;5072883;28;20543;-69
2022/04/08 06:15:56;;;;;;;16.20;6.45;;;6.20;99.90;;;;;;5074080;28;20029;-68
2022/04/08 06:18:22;;;;;;;12.35;4.30;;;6.70;99.90;;;;;;5072801;28;20398;-68
2022/04/08 06:20:48;;;;;;;14.52;4.47;;;6.70;99.90;;;;;;5073775;28;20048;-69
2022/04/08 06:23:13;;;;;;;16.88;4.32;;;6.90;99.90;;;;;;5072653;28;20031;-69
2022/04/08 06:25:39;;;;;;;12.45;3.28;;;7.30;99.90;;;;;;5073189;28;20028;-69
2022/04/08 06:28:06;;;;;;;14.30;3.53;;;7.10;99.90;;;;;;5073793;28;20024;-68
2022/04/08 06:30:35;;;;;;;16.13;4.43;;;7.40;99.90;;;;;;5073727;28;20070;-69
2022/04/08 06:33:03;;;;;;;14.23;3.88;;;7.80;99.90;;;;;;5073687;28;20028;-69
2022/04/08 06:35:28;;;;;;;14.02;4.38;;;8.20;99.90;;;;;;5073689;28;20024;-69
2022/04/08 06:37:59;;;;;;;16.08;4.22;;;8.60;99.90;;;;;;5073477;28;20036;-69
2022/04/08 06:40:25;;;;;;;15.25;3.78;;;8.90;99.90;;;;;;5072202;28;20120;-69
2022/04/08 06:42:55;;;;;;;17.13;4.55;;;8.90;99.90;;;;;;5073626;28;20056;-69
2022/04/08 06:45:21;;;;;;;15.63;3.83;;;9.10;99.90;;;;;;5072166;28;20077;-70
2022/04/08 06:47:49;;;;;;;14.25;3.80;;;8.80;99.90;;;;;;5072310;28;20028;-69
2022/04/08 06:50:15;;;;;;;13.45;4.10;;;8.70;99.90;;;;;;5092966;28;20535;-68
2022/04/08 06:52:41;;;;;;;12.82;3.95;;;8.40;99.90;;;;;;5094402;28;20055;-68
2022/04/08 06:55:08;;;;;;;16.70;4.57;;;8.70;99.90;;;;;;5095020;28;20478;-69
2022/04/08 06:57:33;;;;;;;15.88;4.95;;;9.00;99.90;;;;;;5095940;28;20024;-69
2022/04/08 06:59:59;;;;;;;14.25;4.57;;;9.30;99.90;;;;;;5095497;28;20413;-68
2022/04/08 07:02:24;;;;;;;18.42;5.10;;;9.40;99.90;;;;;;5106239;28;20466;-68
2022/04/08 07:04:51;;;;;;;13.10;5.47;;;9.40;99.90;;;;;;5098496;28;20059;-69
2022/04/08 07:07:17;;;;;;;12.30;6.20;;;8.60;99.90;;;;;;5093183;28;20031;-69
2022/04/08 07:09:42;;;;;;;15.13;6.13;;;8.50;99.90;;;;;;5074864;28;20024;-68
2022/04/08 07:12:08;;;;;;;20.35;7.70;;;8.80;99.90;;;;;;5107060;28;20019;-68
2022/04/08 07:14:33;;;;;;;93.03;44.90;;;9.20;99.90;;;;;;5112291;28;20493;-68
2022/04/08 07:16:59;;;;;;;43.50;22.90;;;9.50;99.90;;;;;;5092088;28;20101;-68
2022/04/08 07:19:24;;;;;;;37.83;17.58;;;10.00;99.90;;;;;;5093146;28;20066;-68
2022/04/08 07:21:50;;;;;;;20.63;9.27;;;10.10;99.90;;;;;;5092003;28;20397;-69
2022/04/08 07:24:15;;;;;;;42.58;21.67;;;10.00;99.90;;;;;;5093147;28;20390;-68
2022/04/08 07:26:41;;;;;;;189.73;91.65;;;10.10;99.90;;;;;;5092831;28;20080;-68
2022/04/08 07:29:06;;;;;;;88.32;47.15;;;10.50;99.90;;;;;;5113431;28;20020;-69
2022/04/08 07:31:32;;;;;;;33.15;15.30;;;11.20;99.90;;;;;;5113477;28;20030;-68
2022/04/08 07:33:57;;;;;;;16.33;7.45;;;11.10;99.90;;;;;;5113541;28;20366;-68
2022/04/08 07:36:23;;;;;;;17.88;7.30;;;10.10;99.90;;;;;;5113637;28;20141;-68
2022/04/08 07:38:49;;;;;;;13.90;5.00;;;10.20;99.90;;;;;;5117713;28;20106;-68
2022/04/08 07:41:15;;;;;;;16.60;6.07;;;11.20;99.90;;;;;;5117566;28;20019;-69
2022/04/08 07:43:40;;;;;;;15.32;5.20;;;11.60;99.90;;;;;;5117619;28;20026;-68
2022/04/08 07:46:06;;;;;;;12.63;4.95;;;10.20;99.90;;;;;;5117621;28;20034;-68
2022/04/08 07:48:31;;;;;;;18.40;5.82;;;9.70;99.90;;;;;;5116365;28;20427;-68
2022/04/08 07:50:57;;;;;;;14.05;6.15;;;9.00;99.90;;;;;;5099204;28;20076;-68
2022/04/08 07:53:23;;;;;;;13.50;6.05;;;8.90;99.90;;;;;;5117486;28;20499;-68
2022/04/08 07:55:48;;;;;;;10.82;5.60;;;8.60;99.90;;;;;;5116271;28;20110;-68
2022/04/08 07:58:14;;;;;;;16.70;6.07;;;8.60;99.90;;;;;;5117272;28;20440;-68
2022/04/08 08:00:39;;;;;;;16.30;8.18;;;8.60;99.90;;;;;;5117211;28;20019;-68
2022/04/08 08:03:05;;;;;;;124.00;59.10;;;8.90;99.90;;;;;;5117253;28;20051;-68
2022/04/08 08:05:32;;;;;;;33.08;13.02;;;9.00;99.90;;;;;;5096646;28;20065;-68
2022/04/08 08:07:59;;;;;;;37.35;20.45;;;9.10;99.90;;;;;;5095591;28;20028;-68
2022/04/08 08:10:30;;;;;;;25.58;15.02;;;9.30;99.90;;;;;;5096747;28;20032;-68
2022/04/08 08:12:57;;;;;;;20.27;12.35;;;9.00;99.90;;;;;;5096607;28;20048;-68
2022/04/08 08:15:24;;;;;;;16.85;6.18;;;8.60;99.90;;;;;;5096679;28;20052;-68
2022/04/08 08:17:50;;;;;;;13.63;5.38;;;9.10;99.90;;;;;;5096617;28;20020;-67
2022/04/08 08:20:19;;;;;;;10.20;4.43;;;8.60;99.90;;;;;;5096224;28;20071;-68
2022/04/08 08:22:45;;;;;;;25.55;11.65;;;8.60;99.90;;;;;;5095222;28;20611;-68
2022/04/08 08:25:12;;;;;;;14.43;7.65;;;8.70;99.90;;;;;;5096396;28;20153;-68
2022/04/08 08:27:42;;;;;;;18.42;5.88;;;8.80;99.90;;;;;;5095266;28;20024;-68
2022/04/08 08:30:10;;;;;;;15.63;5.40;;;9.00;99.90;;;;;;5095195;28;20024;-68
2022/04/08 08:32:38;;;;;;;11.98;4.90;;;9.10;99.90;;;;;;5096159;28;20137;-68
2022/04/08 08:35:07;;;;;;;14.02;5.30;;;9.00;99.90;;;;;;5096167;28;20035;-68
2022/04/08 08:37:33;;;;;;;15.60;4.93;;;9.00;99.90;;;;;;5094954;28;20035;-68
2022/04/08 08:39:59;;;;;;;8.73;4.25;;;9.10;99.90;;;;;;5096112;28;20039;-68
2022/04/08 08:42:25;;;;;;;10.93;4.20;;;9.10;99.90;;;;;;5096206;28;20095;-68
2022/04/08 08:44:51;;;;;;;13.80;5.00;;;8.90;99.90;;;;;;5095036;28;20470;-68
2022/04/08 08:47:18;;;;;;;18.17;4.90;;;9.00;99.90;;;;;;5095835;28;20033;-68
2022/04/08 08:49:49;;;;;;;11.63;5.20;;;8.80;99.90;;;;;;5095614;28;20428;-68
2022/04/08 08:52:17;;;;;;;13.75;6.10;;;8.90;99.90;;;;;;5094736;28;20530;-68
2022/04/08 08:54:44;;;;;;;11.55;5.00;;;9.00;99.90;;;;;;5091891;28;20077;-68
2022/04/08 08:57:10;;;;;;;12.52;5.88;;;9.20;99.90;;;;;;5074262;28;20119;-68
2022/04/08 08:59:37;;;;;;;9.80;5.22;;;9.00;99.90;;;;;;5075355;28;20115;-68
2022/04/08 09:02:03;;;;;;;13.07;5.97;;;8.90;99.90;;;;;;5075411;28;20016;-68
2022/04/08 09:04:30;;;;;;;8.07;3.60;;;8.80;99.90;;;;;;5084528;28;20042;-68
2022/04/08 09:06:56;;;;;;;15.25;6.20;;;9.00;99.90;;;;;;5112980;28;20403;-68
2022/04/08 09:09:37;;;;;;;16.80;6.43;;;8.80;99.90;;;;;;5115967;28;20492;-68
2022/04/08 09:12:11;;;;;;;28.65;13.52;;;9.00;99.90;;;;;;5114660;28;20032;-69
2022/04/08 09:14:37;;;;;;;62.80;32.63;;;8.90;99.90;;;;;;5090509;28;20029;-68
2022/04/08 09:17:03;;;;;;;17.65;9.13;;;8.90;99.90;;;;;;5073887;28;20078;-69
2022/04/08 09:19:33;;;;;;;13.88;6.88;;;9.10;99.90;;;;;;5075997;28;20047;-68
2022/04/08 09:21:59;;;;;;;10.25;5.32;;;9.40;99.90;;;;;;5073908;28;20111;-68
2022/04/08 09:24:24;;;;;;;7.78;5.05;;;9.40;99.90;;;;;;5076070;28;20111;-68
2022/04/08 09:26:52;;;;;;;13.30;7.10;;;9.30;99.90;;;;;;5082018;28;20106;-69
2022/04/08 09:29:19;;;;;;;11.20;6.63;;;9.50;99.90;;;;;;5076833;28;20047;-68
2022/04/08 09:31:49;;;;;;;9.35;6.68;;;9.20;99.90;;;;;;5092090;28;20493;-68
2022/04/08 09:34:16;;;;;;;12.60;6.25;;;9.00;99.90;;;;;;5095059;28;20028;-68
2022/04/08 09:36:42;;;;;;;11.98;6.63;;;9.10;99.90;;;;;;5093224;28;20048;-68
2022/04/08 09:39:10;;;;;;;10.05;6.45;;;8.80;99.90;;;;;;5094972;28;20545;-68
2022/04/08 09:41:45;;;;;;;12.55;6.10;;;9.00;99.90;;;;;;5093197;28;20020;-68
2022/04/08 09:44:12;;;;;;;10.45;6.03;;;8.90;99.90;;;;;;5094712;28;20020;-68
2022/04/08 09:46:38;;;;;;;11.05;6.03;;;9.10;99.90;;;;;;5073880;28;20032;-68
2022/04/08 09:49:05;;;;;;;17.98;6.72;;;9.10;99.90;;;;;;5074580;28;20023;-68
2022/04/08 09:51:37;;;;;;;10.95;5.95;;;9.30;99.90;;;;;;5090397;28;20435;-68
2022/04/08 09:54:05;;;;;;;12.00;6.30;;;9.40;99.90;;;;;;5093416;28;20035;-68
2022/04/08 09:56:31;;;;;;;13.10;6.80;;;9.20;99.90;;;;;;5082185;28;20051;-68
2022/04/08 09:59:08;;;;;;;13.88;6.72;;;9.20;99.90;;;;;;5093078;28;20066;-68
2022/04/08 10:01:35;;;;;;;16.92;8.27;;;9.70;99.90;;;;;;5076081;28;20033;-68
2022/04/08 10:04:04;;;;;;;13.63;6.63;;;10.00;99.90;;;;;;5072859;28;20062;-68
2022/04/08 10:06:30;;;;;;;12.95;6.70;;;9.80;99.90;;;;;;5093102;28;20051;-68
2022/04/08 10:08:57;;;;;;;10.75;5.90;;;9.80;99.90;;;;;;5094228;28;20062;-69
2022/04/08 10:11:39;;;;;;;11.30;6.97;;;9.70;99.90;;;;;;5094435;28;20478;-68
2022/04/08 10:14:45;;;;;;;11.05;6.75;;;9.60;99.90;;;;;;5072793;28;20486;-68
2022/04/08 10:17:11;;;;;;;11.20;5.82;;;9.50;99.90;;;;;;5073729;28;20448;-68
2022/04/08 10:19:37;;;;;;;11.23;5.97;;;9.40;99.90;;;;;;5072407;28;20045;-68
2022/04/08 10:22:02;;;;;;;13.93;8.50;;;9.50;99.90;;;;;;5077963;28;20084;-69
2022/04/08 10:24:30;;;;;;;16.77;8.77;;;9.50;99.90;;;;;;5092755;28;20025;-69
2022/04/08 10:27:13;;;;;;;13.65;7.03;;;9.50;99.90;;;;;;5079166;28;20044;-68
2022/04/08 10:29:38;;;;;;;10.80;5.90;;;9.50;99.90;;;;;;5081241;28;20091;-68
2022/04/08 10:32:13;;;;;;;11.25;6.50;;;9.80;99.90;;;;;;5090990;28;20052;-68
2022/04/08 10:34:38;;;;;;;11.85;7.45;;;9.90;99.90;;;;;;5072253;28;20386;-68
2022/04/08 10:37:16;;;;;;;10.93;7.60;;;9.80;99.90;;;;;;5083879;28;20038;-68
2022/04/08 10:39:42;;;;;;;15.00;8.48;;;9.50;99.90;;;;;;5075922;28;20028;-68
2022/04/08 10:42:20;;;;;;;13.45;9.30;;;9.40;99.90;;;;;;5081549;28;20437;-68
2022/04/08 10:44:46;;;;;;;12.50;8.68;;;9.50;99.90;;;;;;5055757;28;20031;-68
2022/04/08 10:47:15;;;;;;;15.98;8.77;;;9.50;99.90;;;;;;5074522;28;20115;-68
2022/04/08 10:49:49;;;;;;;13.07;9.13;;;9.70;99.90;;;;;;5072069;28;20020;-68
2022/04/08 10:52:17;;;;;;;13.70;9.25;;;9.60;99.90;;;;;;5083700;28;20020;-68
2022/04/08 10:54:42;;;;;;;15.27;10.23;;;9.70;99.90;;;;;;5075463;28;20020;-69
2022/04/08 10:57:08;;;;;;;15.25;8.60;;;9.80;99.90;;;;;;5087794;28;20131;-68
2022/04/08 10:59:34;;;;;;;11.02;7.20;;;9.60;99.90;;;;;;5073242;28;20028;-69
2022/04/08 11:02:02;;;;;;;12.25;7.30;;;9.70;99.90;;;;;;5078518;28;20051;-69
2022/04/08 11:04:29;;;;;;;13.88;7.47;;;9.60;99.90;;;;;;5092063;28;20504;-69
2022/04/08 11:06:56;;;;;;;10.18;7.00;;;9.40;99.90;;;;;;5090516;28;20439;-69
2022/04/08 11:09:22;;;;;;;9.45;7.72;;;9.30;99.90;;;;;;5093398;28;20032;-68
2022/04/08 11:11:52;;;;;;;11.15;7.55;;;9.20;99.90;;;;;;5090080;28;20393;-68
2022/04/08 11:14:18;;;;;;;13.52;7.15;;;9.50;99.90;;;;;;5093277;28;20028;-69
2022/04/08 11:16:43;;;;;;;12.25;5.38;;;9.80;99.90;;;;;;5090343;28;20024;-69
2022/04/08 11:19:11;;;;;;;7.28;4.95;;;9.90;99.90;;;;;;5091957;28;20119;-69
2022/04/08 11:21:39;;;;;;;8.30;4.20;;;9.80;99.90;;;;;;5089976;28;20086;-68
2022/04/08 11:24:07;;;;;;;8.50;4.50;;;9.80;99.90;;;;;;5071791;28;20574;-69
2022/04/08 11:26:50;;;;;;;10.52;4.25;;;9.40;99.90;;;;;;5073497;28;20555;-69
2022/04/08 11:29:21;;;;;;;;;;;9.40;99.90;;;;;;5072445;28;20024;-67
2022/04/08 11:31:48;;;;;;;10.73;5.47;;;9.40;99.90;;;;;;5076354;28;20273;-68
2022/04/08 11:34:15;;;;;;;9.80;4.22;;;9.40;99.90;;;;;;5076595;28;20029;-68
2022/04/08 11:36:41;;;;;;;5.70;3.85;;;9.70;99.90;;;;;;5080326;28;20023;-68
2022/04/08 11:39:07;;;;;;;5.53;3.85;;;9.80;99.90;;;;;;5092726;28;20032;-68
2022/04/08 11:41:35;;;;;;;9.15;4.30;;;9.70;99.90;;;;;;5072232;28;20024;-68
2022/04/08 11:44:03;;;;;;;9.85;3.85;;;9.80;99.90;;;;;;5090913;28;20020;-68
2022/04/08 11:46:28;;;;;;;6.63;4.60;;;9.70;99.90;;;;;;5091798;28;20024;-68
2022/04/08 11:48:54;;;;;;;7.72;4.88;;;9.70;99.90;;;;;;5077884;28;20031;-68
2022/04/08 11:51:21;;;;;;;8.38;3.97;;;9.60;99.90;;;;;;5072958;28;20082;-68
2022/04/08 11:53:49;;;;;;;5.07;3.70;;;9.70;99.90;;;;;;5073860;28;20026;-68
2022/04/08 11:56:21;;;;;;;8.75;4.50;;;9.60;99.90;;;;;;5072708;28;20040;-68
2022/04/08 11:59:05;;;;;;;7.50;4.80;;;9.70;99.90;;;;;;5085041;28;20027;-68
2022/04/08 12:01:33;;;;;;;7.70;6.13;;;9.70;99.90;;;;;;5091623;28;20451;-68
2022/04/08 12:04:04;;;;;;;10.30;5.95;;;9.70;99.90;;;;;;5091231;28;20487;-68
2022/04/08 12:06:47;;;;;;;7.68;5.13;;;9.80;99.90;;;;;;5092796;28;20020;-69
2022/04/08 12:09:15;;;;;;;6.45;4.75;;;9.70;99.90;;;;;;5076101;28;20035;-69
2022/04/08 12:11:43;;;;;;;6.07;4.82;;;9.70;99.70;;;;;;5071351;28;20039;-68
2022/04/08 12:14:10;;;;;;;8.85;5.22;;;9.80;99.90;;;;;;5073566;28;20025;-69
2022/04/08 12:16:39;;;;;;;7.10;4.85;;;9.60;99.90;;;;;;5071236;28;20078;-68
2022/04/08 12:19:05;;;;;;;8.00;4.50;;;9.70;99.90;;;;;;5086024;28;20464;-69
2022/04/08 12:21:31;;;;;;;7.47;5.03;;;9.60;99.90;;;;;;5092692;28;20390;-68
2022/04/08 12:23:59;;;;;;;7.32;4.53;;;9.80;99.90;;;;;;5092618;28;20035;-69
2022/04/08 12:26:27;;;;;;;10.35;5.10;;;10.00;99.90;;;;;;5096371;28;20094;-69
2022/04/08 12:29:05;;;;;;;8.32;4.72;;;9.80;99.90;;;;;;5083599;28;20028;-68
2022/04/08 12:31:31;;;;;;;8.20;4.35;;;9.80;99.90;;;;;;5075744;28;20483;-68
2022/04/08 12:33:56;;;;;;;10.70;4.22;;;9.70;99.90;;;;;;5074681;28;20021;-69
2022/04/08 12:36:23;;;;;;;8.90;4.55;;;9.80;99.90;;;;;;5078912;28;20111;-68
2022/04/08 12:38:48;;;;;;;6.90;4.20;;;9.70;99.90;;;;;;5096144;28;20028;-68
2022/04/08 12:41:14;;;;;;;6.78;4.05;;;9.70;99.90;;;;;;5093115;28;20355;-68
2022/04/08 12:43:40;;;;;;;7.13;3.92;;;9.70;99.90;;;;;;5093388;28;20063;-68
2022/04/08 12:46:05;;;;;;;6.97;3.78;;;9.60;99.90;;;;;;5078015;28;20016;-69